URSS

Sochi International Airport

Sochi, Russian Federation
TAF URSS 210456Z 2106/2206 23005MPS 9999 SCT100 BECMG 2110/2111 27005G10MPS FEW030 BECMG 2117/2118 05006MPS NSC
Issued Valid From Valid To
Aug-21 @ 04:56 UTC
(13 hours ago)
Aug-21 @ 06:00 UTC
(12 hours ago)
Aug-22 @ 06:00 UTC
(in 12 hours)
Expired Click to View Aug-21 @ 06:00 to Aug-21 @ 10:00
TAF URSS 210456Z 2106/2206 23005MPS 9999 SCT100
Wind Visibility Clouds
230° at 10 knots 10,000+ meters
  • Scattered at 10,000' AGL
Expired Click to View Aug-21 @ 10:00 to Aug-21 @ 17:00
BECMG 2110/2111 27005G10MPS FEW030
Wind Visibility Clouds
270° at 10 knots
 Gusting to 19 knots
10,000+ meters
  • Few at 3,000' AGL
Becoming Aug-21 @ 17:00 to Aug-22 @ 06:00
BECMG 2117/2118 05006MPS NSC
Wind Visibility Clouds
50° at 12 knots 10,000+ meters
  • No significant clouds
TAF URSS 210456Z 2106/2206 23005MPS 9999 SCT100 BECMG 2110/2111 27005G10MPS FEW030 BECMG 2117/2118 05006MPS NSC
Issued Aug-21 @ 04:56 UTC
(13 hours ago)
Valid From Aug-21 @ 06:00 UTC
(12 hours ago)
Valid To Aug-22 @ 06:00 UTC
(in 12 hours)
Aug-21 @ 06:00 - Aug-21 @ 10:00
Wind Visibility
230° at 10 knots 10,000+ meters
Clouds
  • Scattered at 10,000' AGL
Aug-21 @ 10:00 - Aug-21 @ 17:00
Wind Visibility
270° at 10 knots
 Gusting to 19 knots
10,000+ meters
Clouds
  • Few at 3,000' AGL
Becoming Aug-21 @ 17:00 - Aug-22 @ 06:00
Wind Visibility
50° at 12 knots 10,000+ meters
Clouds
  • No significant clouds